sensor_id;sensor_type;location;lat;lon;timestamp;temperature;humidity
921;DHT22;447;51.332;6.778;2024-01-30T00:02:02;9.80;99.90
921;DHT22;447;51.332;6.778;2024-01-30T00:04:32;9.80;99.90
921;DHT22;447;51.332;6.778;2024-01-30T00:07:00;9.80;99.90
921;DHT22;447;51.332;6.778;2024-01-30T00:09:26;9.80;99.90
921;DHT22;447;51.332;6.778;2024-01-30T00:11:53;9.80;99.90
921;DHT22;447;51.332;6.778;2024-01-30T00:14:19;9.80;99.90
921;DHT22;447;51.332;6.778;2024-01-30T00:16:49;9.80;99.90
921;DHT22;447;51.332;6.778;2024-01-30T00:19:14;9.80;99.90
921;DHT22;447;51.332;6.778;2024-01-30T00:21:41;9.80;99.90
921;DHT22;447;51.332;6.778;2024-01-30T00:24:09;9.80;99.90
921;DHT22;447;51.332;6.778;2024-01-30T00:26:35;9.80;99.90
921;DHT22;447;51.332;6.778;2024-01-30T00:29:02;9.80;99.90
921;DHT22;447;51.332;6.778;2024-01-30T00:31:28;9.80;99.90
921;DHT22;447;51.332;6.778;2024-01-30T00:33:55;9.80;99.90
921;DHT22;447;51.332;6.778;2024-01-30T00:36:21;9.80;99.90
921;DHT22;447;51.332;6.778;2024-01-30T00:38:49;9.80;99.90
921;DHT22;447;51.332;6.778;2024-01-30T00:41:18;9.80;99.90
921;DHT22;447;51.332;6.778;2024-01-30T00:43:51;9.80;99.90
921;DHT22;447;51.332;6.778;2024-01-30T00:46:19;9.80;99.90
921;DHT22;447;51.332;6.778;2024-01-30T00:48:49;9.80;99.90
921;DHT22;447;51.332;6.778;2024-01-30T00:51:20;9.80;99.90
921;DHT22;447;51.332;6.778;2024-01-30T00:53:47;9.80;99.90
921;DHT22;447;51.332;6.778;2024-01-30T00:56:15;9.80;99.90
921;DHT22;447;51.332;6.778;2024-01-30T00:58:43;9.80;99.90
921;DHT22;447;51.332;6.778;2024-01-30T01:01:14;9.80;99.90
921;DHT22;447;51.332;6.778;2024-01-30T01:03:42;9.80;99.90
921;DHT22;447;51.332;6.778;2024-01-30T01:06:11;9.80;99.90
921;DHT22;447;51.332;6.778;2024-01-30T01:08:42;9.80;99.90
921;DHT22;447;51.332;6.778;2024-01-30T01:11:08;9.80;99.90
921;DHT22;447;51.332;6.778;2024-01-30T01:13:34;9.80;99.90
921;DHT22;447;51.332;6.778;2024-01-30T01:16:00;9.80;99.90
921;DHT22;447;51.332;6.778;2024-01-30T01:18:26;9.80;99.90
921;DHT22;447;51.332;6.778;2024-01-30T01:20:52;9.80;99.90
921;DHT22;447;51.332;6.778;2024-01-30T01:23:19;9.80;99.90
921;DHT22;447;51.332;6.778;2024-01-30T01:25:47;9.80;99.90
921;DHT22;447;51.332;6.778;2024-01-30T01:28:15;9.80;99.90
921;DHT22;447;51.332;6.778;2024-01-30T01:30:41;9.80;99.90
921;DHT22;447;51.332;6.778;2024-01-30T01:33:10;9.80;99.90
921;DHT22;447;51.332;6.778;2024-01-30T01:35:36;9.80;99.90
921;DHT22;447;51.332;6.778;2024-01-30T01:38:02;9.80;99.90
921;DHT22;447;51.332;6.778;2024-01-30T01:40:31;9.80;99.90
921;DHT22;447;51.332;6.778;2024-01-30T01:43:05;9.80;99.90
921;DHT22;447;51.332;6.778;2024-01-30T01:45:33;9.80;99.90
921;DHT22;447;51.332;6.778;2024-01-30T01:47:59;9.80;99.90
921;DHT22;447;51.332;6.778;2024-01-30T01:50:28;9.80;99.90
921;DHT22;447;51.332;6.778;2024-01-30T01:52:59;9.80;99.90
921;DHT22;447;51.332;6.778;2024-01-30T01:55:28;9.80;99.90
921;DHT22;447;51.332;6.778;2024-01-30T01:58:00;9.70;99.90
921;DHT22;447;51.332;6.778;2024-01-30T02:00:29;9.80;99.90
921;DHT22;447;51.332;6.778;2024-01-30T02:02:59;9.80;99.90
921;DHT22;447;51.332;6.778;2024-01-30T02:05:26;9.80;99.90
921;DHT22;447;51.332;6.778;2024-01-30T02:07:54;9.80;99.90
921;DHT22;447;51.332;6.778;2024-01-30T02:10:24;9.80;99.90
921;DHT22;447;51.332;6.778;2024-01-30T02:12:52;9.70;99.90
921;DHT22;447;51.332;6.778;2024-01-30T02:15:21;9.80;99.90
921;DHT22;447;51.332;6.778;2024-01-30T02:17:47;9.80;99.90
921;DHT22;447;51.332;6.778;2024-01-30T02:20:15;9.80;99.90
921;DHT22;447;51.332;6.778;2024-01-30T02:22:41;9.70;99.90
921;DHT22;447;51.332;6.778;2024-01-30T02:25:18;9.80;99.90
921;DHT22;447;51.332;6.778;2024-01-30T02:27:44;9.80;99.90
921;DHT22;447;51.332;6.778;2024-01-30T02:30:12;9.70;99.90
921;DHT22;447;51.332;6.778;2024-01-30T02:32:38;9.70;99.90
921;DHT22;447;51.332;6.778;2024-01-30T02:35:04;9.70;99.90
921;DHT22;447;51.332;6.778;2024-01-30T02:37:30;9.70;99.90
921;DHT22;447;51.332;6.778;2024-01-30T02:39:56;9.70;99.90
921;DHT22;447;51.332;6.778;2024-01-30T02:42:24;9.70;99.90
921;DHT22;447;51.332;6.778;2024-01-30T02:44:56;9.70;99.90
921;DHT22;447;51.332;6.778;2024-01-30T02:47:25;9.70;99.90
921;DHT22;447;51.332;6.778;2024-01-30T02:49:51;9.70;99.90
921;DHT22;447;51.332;6.778;2024-01-30T02:52:20;9.70;99.90
921;DHT22;447;51.332;6.778;2024-01-30T02:54:48;9.70;99.90
921;DHT22;447;51.332;6.778;2024-01-30T02:57:14;9.70;99.90
921;DHT22;447;51.332;6.778;2024-01-30T02:59:43;9.70;99.90
921;DHT22;447;51.332;6.778;2024-01-30T03:02:11;9.70;99.90
921;DHT22;447;51.332;6.778;2024-01-30T03:04:41;9.70;99.90
921;DHT22;447;51.332;6.778;2024-01-30T03:07:08;9.70;99.90
921;DHT22;447;51.332;6.778;2024-01-30T03:09:34;9.70;99.90
921;DHT22;447;51.332;6.778;2024-01-30T03:12:01;9.70;99.90
921;DHT22;447;51.332;6.778;2024-01-30T03:14:29;9.70;99.90
921;DHT22;447;51.332;6.778;2024-01-30T03:16:58;9.70;99.90
921;DHT22;447;51.332;6.778;2024-01-30T03:19:27;9.70;99.90
921;DHT22;447;51.332;6.778;2024-01-30T03:21:55;9.70;99.90
921;DHT22;447;51.332;6.778;2024-01-30T03:24:21;9.70;99.90
921;DHT22;447;51.332;6.778;2024-01-30T03:26:47;9.70;99.90
921;DHT22;447;51.332;6.778;2024-01-30T03:29:16;9.70;99.90
921;DHT22;447;51.332;6.778;2024-01-30T03:31:42;9.70;99.90
921;DHT22;447;51.332;6.778;2024-01-30T03:34:08;9.70;99.90
921;DHT22;447;51.332;6.778;2024-01-30T03:36:34;9.70;99.90
921;DHT22;447;51.332;6.778;2024-01-30T03:39:01;9.70;99.90
921;DHT22;447;51.332;6.778;2024-01-30T03:41:27;9.70;99.90
921;DHT22;447;51.332;6.778;2024-01-30T03:43:58;9.70;99.90
921;DHT22;447;51.332;6.778;2024-01-30T03:46:27;9.70;99.90
921;DHT22;447;51.332;6.778;2024-01-30T03:48:53;9.70;99.90
921;DHT22;447;51.332;6.778;2024-01-30T03:51:21;9.70;99.90
921;DHT22;447;51.332;6.778;2024-01-30T03:53:49;9.70;99.90
921;DHT22;447;51.332;6.778;2024-01-30T03:56:18;9.70;99.90
921;DHT22;447;51.332;6.778;2024-01-30T03:58:44;9.70;99.90
921;DHT22;447;51.332;6.778;2024-01-30T04:01:16;9.70;99.90
921;DHT22;447;51.332;6.778;2024-01-30T04:03:44;9.70;99.90
921;DHT22;447;51.332;6.778;2024-01-30T04:06:12;9.70;99.90
921;DHT22;447;51.332;6.778;2024-01-30T04:08:39;9.70;99.90
921;DHT22;447;51.332;6.778;2024-01-30T04:11:05;9.70;99.90
921;DHT22;447;51.332;6.778;2024-01-30T04:13:34;9.70;99.90
921;DHT22;447;51.332;6.778;2024-01-30T04:16:03;9.70;99.90
921;DHT22;447;51.332;6.778;2024-01-30T04:18:32;9.70;99.90
921;DHT22;447;51.332;6.778;2024-01-30T04:20:59;9.70;99.90
921;DHT22;447;51.332;6.778;2024-01-30T04:23:25;9.70;99.90
921;DHT22;447;51.332;6.778;2024-01-30T04:25:51;9.70;99.90
921;DHT22;447;51.332;6.778;2024-01-30T04:28:18;9.70;99.90
921;DHT22;447;51.332;6.778;2024-01-30T04:30:46;9.70;99.90
921;DHT22;447;51.332;6.778;2024-01-30T04:33:17;9.60;99.90
921;DHT22;447;51.332;6.778;2024-01-30T04:35:44;9.70;99.90
921;DHT22;447;51.332;6.778;2024-01-30T04:38:10;9.70;99.90
921;DHT22;447;51.332;6.778;2024-01-30T04:40:36;9.70;99.90
921;DHT22;447;51.332;6.778;2024-01-30T04:43:04;9.60;99.90
921;DHT22;447;51.332;6.778;2024-01-30T04:45:30;9.70;99.90
921;DHT22;447;51.332;6.778;2024-01-30T04:47:58;9.70;99.90
921;DHT22;447;51.332;6.778;2024-01-30T04:50:24;9.70;99.90
921;DHT22;447;51.332;6.778;2024-01-30T04:52:54;9.70;99.90
921;DHT22;447;51.332;6.778;2024-01-30T04:55:21;9.70;99.90
921;DHT22;447;51.332;6.778;2024-01-30T04:57:50;9.70;99.90
921;DHT22;447;51.332;6.778;2024-01-30T05:00:16;9.70;99.90
921;DHT22;447;51.332;6.778;2024-01-30T05:02:44;9.70;99.90
921;DHT22;447;51.332;6.778;2024-01-30T05:05:10;9.70;99.90
921;DHT22;447;51.332;6.778;2024-01-30T05:07:37;9.70;99.90
921;DHT22;447;51.332;6.778;2024-01-30T05:10:05;9.70;99.90
921;DHT22;447;51.332;6.778;2024-01-30T05:12:34;9.70;99.90
921;DHT22;447;51.332;6.778;2024-01-30T05:15:00;9.70;99.90
921;DHT22;447;51.332;6.778;2024-01-30T05:17:26;9.70;99.90
921;DHT22;447;51.332;6.778;2024-01-30T05:19:52;9.70;99.90
921;DHT22;447;51.332;6.778;2024-01-30T05:22:18;9.60;99.90
921;DHT22;447;51.332;6.778;2024-01-30T05:24:44;9.70;99.90
921;DHT22;447;51.332;6.778;2024-01-30T05:27:13;9.70;99.90
921;DHT22;447;51.332;6.778;2024-01-30T05:29:42;9.70;99.90
921;DHT22;447;51.332;6.778;2024-01-30T05:32:10;9.60;99.90
921;DHT22;447;51.332;6.778;2024-01-30T05:34:38;9.60;99.90
921;DHT22;447;51.332;6.778;2024-01-30T05:37:07;9.60;99.90
921;DHT22;447;51.332;6.778;2024-01-30T05:39:33;9.60;99.90
921;DHT22;447;51.332;6.778;2024-01-30T05:42:01;9.60;99.90
921;DHT22;447;51.332;6.778;2024-01-30T05:44:28;9.60;99.90
921;DHT22;447;51.332;6.778;2024-01-30T05:46:53;9.60;99.90
921;DHT22;447;51.332;6.778;2024-01-30T05:49:20;9.60;99.90
921;DHT22;447;51.332;6.778;2024-01-30T05:51:46;9.60;99.90
921;DHT22;447;51.332;6.778;2024-01-30T05:54:16;9.60;99.90
921;DHT22;447;51.332;6.778;2024-01-30T05:56:42;9.60;99.90
921;DHT22;447;51.332;6.778;2024-01-30T05:59:08;9.60;99.90
921;DHT22;447;51.332;6.778;2024-01-30T06:01:35;9.60;99.90
921;DHT22;447;51.332;6.778;2024-01-30T06:04:06;9.60;99.90
921;DHT22;447;51.332;6.778;2024-01-30T06:06:32;9.60;99.90
921;DHT22;447;51.332;6.778;2024-01-30T06:08:58;9.60;99.90
921;DHT22;447;51.332;6.778;2024-01-30T06:11:28;9.60;99.90
921;DHT22;447;51.332;6.778;2024-01-30T06:13:56;9.60;99.90
921;DHT22;447;51.332;6.778;2024-01-30T06:16:22;9.60;99.90
921;DHT22;447;51.332;6.778;2024-01-30T06:18:48;9.60;99.90
921;DHT22;447;51.332;6.778;2024-01-30T06:21:18;9.60;99.90
921;DHT22;447;51.332;6.778;2024-01-30T06:23:44;9.60;99.90
921;DHT22;447;51.332;6.778;2024-01-30T06:26:12;9.60;99.90
921;DHT22;447;51.332;6.778;2024-01-30T06:28:38;9.60;99.90
921;DHT22;447;51.332;6.778;2024-01-30T06:31:04;9.60;99.90
921;DHT22;447;51.332;6.778;2024-01-30T06:33:30;9.60;99.90
921;DHT22;447;51.332;6.778;2024-01-30T06:35:56;9.60;99.90
921;DHT22;447;51.332;6.778;2024-01-30T06:38:24;9.60;99.90
921;DHT22;447;51.332;6.778;2024-01-30T06:40:57;9.60;99.90
921;DHT22;447;51.332;6.778;2024-01-30T06:43:24;9.60;99.90
921;DHT22;447;51.332;6.778;2024-01-30T06:45:49;9.60;99.90
921;DHT22;447;51.332;6.778;2024-01-30T06:48:19;9.60;99.90
921;DHT22;447;51.332;6.778;2024-01-30T06:50:45;9.60;99.90
921;DHT22;447;51.332;6.778;2024-01-30T06:53:14;9.60;99.90
921;DHT22;447;51.332;6.778;2024-01-30T06:55:40;9.60;99.90
921;DHT22;447;51.332;6.778;2024-01-30T06:58:06;9.60;99.90
921;DHT22;447;51.332;6.778;2024-01-30T07:00:32;9.60;99.90
921;DHT22;447;51.332;6.778;2024-01-30T07:02:58;9.60;99.90
921;DHT22;447;51.332;6.778;2024-01-30T07:05:26;9.60;99.90
921;DHT22;447;51.332;6.778;2024-01-30T07:07:53;9.60;99.90
921;DHT22;447;51.332;6.778;2024-01-30T07:10:18;9.60;99.90
921;DHT22;447;51.332;6.778;2024-01-30T07:12:45;9.60;99.90
921;DHT22;447;51.332;6.778;2024-01-30T07:15:13;9.60;99.90
921;DHT22;447;51.332;6.778;2024-01-30T07:17:48;9.60;99.90
921;DHT22;447;51.332;6.778;2024-01-30T07:20:19;9.60;99.90
921;DHT22;447;51.332;6.778;2024-01-30T07:22:46;9.60;99.90
921;DHT22;447;51.332;6.778;2024-01-30T07:25:14;9.60;99.90
921;DHT22;447;51.332;6.778;2024-01-30T07:27:40;9.50;99.90
921;DHT22;447;51.332;6.778;2024-01-30T07:30:08;9.60;99.90
921;DHT22;447;51.332;6.778;2024-01-30T07:32:35;9.60;99.90
921;DHT22;447;51.332;6.778;2024-01-30T07:35:03;9.60;99.90
921;DHT22;447;51.332;6.778;2024-01-30T07:37:29;9.60;99.90
921;DHT22;447;51.332;6.778;2024-01-30T07:39:55;9.60;99.90
921;DHT22;447;51.332;6.778;2024-01-30T07:42:21;9.60;99.90
921;DHT22;447;51.332;6.778;2024-01-30T07:44:47;9.60;99.90
921;DHT22;447;51.332;6.778;2024-01-30T07:47:16;9.60;99.90
921;DHT22;447;51.332;6.778;2024-01-30T07:49:44;9.60;99.90
921;DHT22;447;51.332;6.778;2024-01-30T07:52:10;9.60;99.90
921;DHT22;447;51.332;6.778;2024-01-30T07:54:40;9.60;99.90
921;DHT22;447;51.332;6.778;2024-01-30T07:57:09;9.60;99.90
921;DHT22;447;51.332;6.778;2024-01-30T07:59:35;9.60;99.90
921;DHT22;447;51.332;6.778;2024-01-30T08:02:04;9.60;99.90
921;DHT22;447;51.332;6.778;2024-01-30T08:04:30;9.60;99.90
921;DHT22;447;51.332;6.778;2024-01-30T08:06:56;9.60;99.90
921;DHT22;447;51.332;6.778;2024-01-30T08:09:21;9.60;99.90
921;DHT22;447;51.332;6.778;2024-01-30T08:11:48;9.60;99.90
921;DHT22;447;51.332;6.778;2024-01-30T08:14:14;9.60;99.90
921;DHT22;447;51.332;6.778;2024-01-30T08:16:41;9.60;99.90
921;DHT22;447;51.332;6.778;2024-01-30T08:19:07;9.60;99.90
921;DHT22;447;51.332;6.778;2024-01-30T08:21:35;9.60;99.90
921;DHT22;447;51.332;6.778;2024-01-30T08:24:05;9.60;99.90
921;DHT22;447;51.332;6.778;2024-01-30T08:26:32;9.60;99.90
921;DHT22;447;51.332;6.778;2024-01-30T08:29:01;9.60;99.90
921;DHT22;447;51.332;6.778;2024-01-30T08:31:28;9.60;99.90
921;DHT22;447;51.332;6.778;2024-01-30T08:33:54;9.60;99.90
921;DHT22;447;51.332;6.778;2024-01-30T08:36:29;9.60;99.90
921;DHT22;447;51.332;6.778;2024-01-30T08:38:57;9.60;99.90
921;DHT22;447;51.332;6.778;2024-01-30T08:41:24;9.60;99.90
921;DHT22;447;51.332;6.778;2024-01-30T08:43:52;9.60;99.90
921;DHT22;447;51.332;6.778;2024-01-30T08:46:37;9.60;99.90
921;DHT22;447;51.332;6.778;2024-01-30T08:49:10;9.60;99.90
921;DHT22;447;51.332;6.778;2024-01-30T08:51:36;9.60;99.90
921;DHT22;447;51.332;6.778;2024-01-30T08:54:02;9.60;99.90
921;DHT22;447;51.332;6.778;2024-01-30T08:56:28;9.60;99.90
921;DHT22;447;51.332;6.778;2024-01-30T08:58:54;9.60;99.90
921;DHT22;447;51.332;6.778;2024-01-30T09:01:23;9.60;99.90
921;DHT22;447;51.332;6.778;2024-01-30T09:03:50;9.60;99.90
921;DHT22;447;51.332;6.778;2024-01-30T09:06:24;9.60;99.90
921;DHT22;447;51.332;6.778;2024-01-30T09:08:52;9.60;99.90
921;DHT22;447;51.332;6.778;2024-01-30T09:11:21;9.60;99.90
921;DHT22;447;51.332;6.778;2024-01-30T09:13:47;9.60;99.90
921;DHT22;447;51.332;6.778;2024-01-30T09:16:14;9.60;99.90
921;DHT22;447;51.332;6.778;2024-01-30T09:18:45;9.60;99.90
921;DHT22;447;51.332;6.778;2024-01-30T09:21:11;9.60;99.90
921;DHT22;447;51.332;6.778;2024-01-30T09:23:37;9.60;99.90
921;DHT22;447;51.332;6.778;2024-01-30T09:26:03;9.60;99.90
921;DHT22;447;51.332;6.778;2024-01-30T09:28:30;9.60;99.90
921;DHT22;447;51.332;6.778;2024-01-30T09:30:56;9.60;99.90
921;DHT22;447;51.332;6.778;2024-01-30T09:33:23;9.60;99.90
921;DHT22;447;51.332;6.778;2024-01-30T09:35:49;9.60;99.90
921;DHT22;447;51.332;6.778;2024-01-30T09:38:15;9.70;99.90
921;DHT22;447;51.332;6.778;2024-01-30T09:40:45;9.70;99.90
921;DHT22;447;51.332;6.778;2024-01-30T09:43:22;9.70;99.90
921;DHT22;447;51.332;6.778;2024-01-30T09:45:50;9.70;99.90
921;DHT22;447;51.332;6.778;2024-01-30T09:48:19;9.70;99.90
921;DHT22;447;51.332;6.778;2024-01-30T09:50:46;9.70;99.90
921;DHT22;447;51.332;6.778;2024-01-30T09:53:14;9.60;99.90
921;DHT22;447;51.332;6.778;2024-01-30T09:55:43;9.70;99.90
921;DHT22;447;51.332;6.778;2024-01-30T09:58:12;9.70;99.90
921;DHT22;447;51.332;6.778;2024-01-30T10:00:39;9.70;99.90
921;DHT22;447;51.332;6.778;2024-01-30T10:03:05;9.70;99.90
921;DHT22;447;51.332;6.778;2024-01-30T10:05:35;9.70;99.90
921;DHT22;447;51.332;6.778;2024-01-30T10:08:06;9.70;99.90
921;DHT22;447;51.332;6.778;2024-01-30T10:10:35;9.70;99.90
921;DHT22;447;51.332;6.778;2024-01-30T10:13:02;9.70;99.90
921;DHT22;447;51.332;6.778;2024-01-30T10:15:28;9.80;99.90
921;DHT22;447;51.332;6.778;2024-01-30T10:17:55;9.80;99.90
921;DHT22;447;51.332;6.778;2024-01-30T10:20:21;9.80;99.90
921;DHT22;447;51.332;6.778;2024-01-30T10:22:51;9.80;99.90
921;DHT22;447;51.332;6.778;2024-01-30T10:25:17;9.80;99.90
921;DHT22;447;51.332;6.778;2024-01-30T10:27:45;9.80;99.90
921;DHT22;447;51.332;6.778;2024-01-30T10:30:13;9.80;99.90
921;DHT22;447;51.332;6.778;2024-01-30T10:32:39;9.80;99.90
921;DHT22;447;51.332;6.778;2024-01-30T10:35:06;9.80;99.90
921;DHT22;447;51.332;6.778;2024-01-30T10:37:31;9.80;99.90
921;DHT22;447;51.332;6.778;2024-01-30T10:40:03;9.80;99.90
921;DHT22;447;51.332;6.778;2024-01-30T10:42:32;9.80;99.90
921;DHT22;447;51.332;6.778;2024-01-30T10:45:07;9.90;99.90
921;DHT22;447;51.332;6.778;2024-01-30T10:47:43;9.90;99.90
921;DHT22;447;51.332;6.778;2024-01-30T10:50:10;9.90;99.90
921;DHT22;447;51.332;6.778;2024-01-30T10:52:37;9.90;99.90
921;DHT22;447;51.332;6.778;2024-01-30T10:55:04;9.90;99.90
921;DHT22;447;51.332;6.778;2024-01-30T10:57:36;9.90;99.90
921;DHT22;447;51.332;6.778;2024-01-30T11:00:13;9.90;99.90
921;DHT22;447;51.332;6.778;2024-01-30T11:02:45;9.90;99.90
921;DHT22;447;51.332;6.778;2024-01-30T11:05:13;9.90;99.90
921;DHT22;447;51.332;6.778;2024-01-30T11:07:41;9.90;99.90
921;DHT22;447;51.332;6.778;2024-01-30T11:10:09;9.90;99.90
921;DHT22;447;51.332;6.778;2024-01-30T11:12:43;9.90;99.90
921;DHT22;447;51.332;6.778;2024-01-30T11:15:14;9.90;99.90
921;DHT22;447;51.332;6.778;2024-01-30T11:20:22;10.00;99.90
921;DHT22;447;51.332;6.778;2024-01-30T11:22:54;10.00;99.90
921;DHT22;447;51.332;6.778;2024-01-30T11:25:22;10.00;99.90
921;DHT22;447;51.332;6.778;2024-01-30T11:27:55;10.00;99.90
921;DHT22;447;51.332;6.778;2024-01-30T11:30:25;10.00;99.90
921;DHT22;447;51.332;6.778;2024-01-30T11:33:14;10.00;99.90
921;DHT22;447;51.332;6.778;2024-01-30T11:35:44;10.00;99.90
921;DHT22;447;51.332;6.778;2024-01-30T11:38:15;10.00;99.90
921;DHT22;447;51.332;6.778;2024-01-30T11:40:44;10.10;99.90
921;DHT22;447;51.332;6.778;2024-01-30T11:43:15;10.10;99.90
921;DHT22;447;51.332;6.778;2024-01-30T11:45:42;10.10;99.90
921;DHT22;447;51.332;6.778;2024-01-30T11:48:13;10.10;99.90
921;DHT22;447;51.332;6.778;2024-01-30T11:50:42;10.10;99.90
921;DHT22;447;51.332;6.778;2024-01-30T11:53:10;10.10;99.90
921;DHT22;447;51.332;6.778;2024-01-30T11:55:38;10.10;99.90
921;DHT22;447;51.332;6.778;2024-01-30T11:58:05;10.10;99.90
921;DHT22;447;51.332;6.778;2024-01-30T12:00:35;10.10;99.90
921;DHT22;447;51.332;6.778;2024-01-30T12:03:05;10.20;99.90
921;DHT22;447;51.332;6.778;2024-01-30T12:05:35;10.20;99.90
921;DHT22;447;51.332;6.778;2024-01-30T12:08:02;10.20;99.90
921;DHT22;447;51.332;6.778;2024-01-30T12:10:28;10.20;99.90
921;DHT22;447;51.332;6.778;2024-01-30T12:12:56;10.20;99.90
921;DHT22;447;51.332;6.778;2024-01-30T12:15:28;10.20;99.90
921;DHT22;447;51.332;6.778;2024-01-30T12:18:06;10.20;99.90
921;DHT22;447;51.332;6.778;2024-01-30T12:20:33;10.20;99.90
921;DHT22;447;51.332;6.778;2024-01-30T12:23:01;10.20;99.90
921;DHT22;447;51.332;6.778;2024-01-30T12:25:32;10.20;99.90
921;DHT22;447;51.332;6.778;2024-01-30T12:27:58;10.20;99.90
921;DHT22;447;51.332;6.778;2024-01-30T12:30:24;10.20;99.90
921;DHT22;447;51.332;6.778;2024-01-30T12:32:55;10.20;99.90
921;DHT22;447;51.332;6.778;2024-01-30T12:35:23;10.20;99.90
921;DHT22;447;51.332;6.778;2024-01-30T12:37:51;10.30;99.90
921;DHT22;447;51.332;6.778;2024-01-30T12:40:18;10.30;99.90
921;DHT22;447;51.332;6.778;2024-01-30T12:42:47;10.30;99.90
921;DHT22;447;51.332;6.778;2024-01-30T12:45:15;10.30;99.90
921;DHT22;447;51.332;6.778;2024-01-30T12:47:45;10.30;99.90
921;DHT22;447;51.332;6.778;2024-01-30T12:50:11;10.30;99.90
921;DHT22;447;51.332;6.778;2024-01-30T12:52:44;10.30;99.90
921;DHT22;447;51.332;6.778;2024-01-30T12:55:13;10.30;99.90
921;DHT22;447;51.332;6.778;2024-01-30T12:57:39;10.30;99.90
921;DHT22;447;51.332;6.778;2024-01-30T13:00:07;10.30;99.90
921;DHT22;447;51.332;6.778;2024-01-30T13:02:34;10.40;99.90
921;DHT22;447;51.332;6.778;2024-01-30T13:05:08;10.30;99.90
921;DHT22;447;51.332;6.778;2024-01-30T13:07:39;10.40;99.90
921;DHT22;447;51.332;6.778;2024-01-30T13:10:05;10.40;99.90
921;DHT22;447;51.332;6.778;2024-01-30T13:12:34;10.40;99.90
921;DHT22;447;51.332;6.778;2024-01-30T13:15:00;10.40;99.90
921;DHT22;447;51.332;6.778;2024-01-30T13:17:32;10.40;99.90
921;DHT22;447;51.332;6.778;2024-01-30T13:20:00;10.40;99.90
921;DHT22;447;51.332;6.778;2024-01-30T13:22:26;10.40;99.90
921;DHT22;447;51.332;6.778;2024-01-30T13:24:54;10.40;99.90
921;DHT22;447;51.332;6.778;2024-01-30T13:27:25;10.40;99.90
921;DHT22;447;51.332;6.778;2024-01-30T13:29:53;10.50;99.90
921;DHT22;447;51.332;6.778;2024-01-30T13:32:20;10.50;99.90
921;DHT22;447;51.332;6.778;2024-01-30T13:34:53;10.50;99.90
921;DHT22;447;51.332;6.778;2024-01-30T13:37:24;10.50;99.90
921;DHT22;447;51.332;6.778;2024-01-30T13:39:51;10.50;99.90
921;DHT22;447;51.332;6.778;2024-01-30T13:42:19;10.50;99.90
921;DHT22;447;51.332;6.778;2024-01-30T13:44:48;10.50;99.90
921;DHT22;447;51.332;6.778;2024-01-30T13:47:14;10.60;99.90
921;DHT22;447;51.332;6.778;2024-01-30T13:49:42;10.60;99.90
921;DHT22;447;51.332;6.778;2024-01-30T13:52:09;10.60;99.90
921;DHT22;447;51.332;6.778;2024-01-30T13:54:38;10.60;99.90
921;DHT22;447;51.332;6.778;2024-01-30T13:57:04;10.60;99.90
921;DHT22;447;51.332;6.778;2024-01-30T13:59:32;10.60;99.90
921;DHT22;447;51.332;6.778;2024-01-30T14:01:58;10.60;99.90
921;DHT22;447;51.332;6.778;2024-01-30T14:04:24;10.70;99.90
921;DHT22;447;51.332;6.778;2024-01-30T14:06:50;10.70;99.90
921;DHT22;447;51.332;6.778;2024-01-30T14:09:16;10.70;99.90
921;DHT22;447;51.332;6.778;2024-01-30T14:11:42;10.70;99.90
921;DHT22;447;51.332;6.778;2024-01-30T14:14:13;10.70;99.90
921;DHT22;447;51.332;6.778;2024-01-30T14:16:39;10.70;99.90
921;DHT22;447;51.332;6.778;2024-01-30T14:19:05;10.70;99.90
921;DHT22;447;51.332;6.778;2024-01-30T14:21:34;10.70;99.90
921;DHT22;447;51.332;6.778;2024-01-30T14:24:01;10.70;99.90
921;DHT22;447;51.332;6.778;2024-01-30T14:26:27;10.80;99.90
921;DHT22;447;51.332;6.778;2024-01-30T14:28:54;10.80;99.90
921;DHT22;447;51.332;6.778;2024-01-30T14:31:21;10.80;99.90
921;DHT22;447;51.332;6.778;2024-01-30T14:33:47;10.80;99.90
921;DHT22;447;51.332;6.778;2024-01-30T14:36:14;10.80;99.90
921;DHT22;447;51.332;6.778;2024-01-30T14:38:40;10.80;99.90
921;DHT22;447;51.332;6.778;2024-01-30T14:41:06;10.80;99.90
921;DHT22;447;51.332;6.778;2024-01-30T14:43:32;10.80;99.90
921;DHT22;447;51.332;6.778;2024-01-30T14:45:58;10.90;99.90
921;DHT22;447;51.332;6.778;2024-01-30T14:48:24;10.90;99.90
921;DHT22;447;51.332;6.778;2024-01-30T14:50:50;10.90;99.90
921;DHT22;447;51.332;6.778;2024-01-30T14:53:16;10.90;99.90
921;DHT22;447;51.332;6.778;2024-01-30T14:55:45;10.90;99.90
921;DHT22;447;51.332;6.778;2024-01-30T14:58:11;10.90;99.90
921;DHT22;447;51.332;6.778;2024-01-30T15:00:37;10.90;99.90
921;DHT22;447;51.332;6.778;2024-01-30T15:03:04;10.90;99.90
921;DHT22;447;51.332;6.778;2024-01-30T15:05:33;10.90;99.90
921;DHT22;447;51.332;6.778;2024-01-30T15:07:59;10.90;99.90
921;DHT22;447;51.332;6.778;2024-01-30T15:10:25;11.00;99.90
921;DHT22;447;51.332;6.778;2024-01-30T15:12:51;11.00;99.90
921;DHT22;447;51.332;6.778;2024-01-30T15:15:17;11.00;99.90
921;DHT22;447;51.332;6.778;2024-01-30T15:17:43;11.00;99.90
921;DHT22;447;51.332;6.778;2024-01-30T15:20:11;11.00;99.90
921;DHT22;447;51.332;6.778;2024-01-30T15:22:37;11.00;99.90
921;DHT22;447;51.332;6.778;2024-01-30T15:25:06;11.00;99.90
921;DHT22;447;51.332;6.778;2024-01-30T15:27:32;11.00;99.90
921;DHT22;447;51.332;6.778;2024-01-30T15:30:17;11.00;99.90
921;DHT22;447;51.332;6.778;2024-01-30T15:33:05;11.00;99.90
921;DHT22;447;51.332;6.778;2024-01-30T15:35:50;11.00;99.90
921;DHT22;447;51.332;6.778;2024-01-30T15:38:18;11.00;99.90
921;DHT22;447;51.332;6.778;2024-01-30T15:40:48;11.00;99.90
921;DHT22;447;51.332;6.778;2024-01-30T15:43:16;11.00;99.90
921;DHT22;447;51.332;6.778;2024-01-30T15:45:42;11.00;99.90
921;DHT22;447;51.332;6.778;2024-01-30T15:48:30;11.00;99.90
921;DHT22;447;51.332;6.778;2024-01-30T15:51:01;11.00;99.90
921;DHT22;447;51.332;6.778;2024-01-30T15:53:27;11.00;99.90
921;DHT22;447;51.332;6.778;2024-01-30T15:55:53;11.00;99.90
921;DHT22;447;51.332;6.778;2024-01-30T15:58:38;11.00;99.90
921;DHT22;447;51.332;6.778;2024-01-30T16:01:07;11.00;99.90
921;DHT22;447;51.332;6.778;2024-01-30T16:03:33;11.00;99.90
921;DHT22;447;51.332;6.778;2024-01-30T16:06:22;11.00;99.90
921;DHT22;447;51.332;6.778;2024-01-30T16:08:48;11.00;99.90
921;DHT22;447;51.332;6.778;2024-01-30T16:11:16;11.00;99.90
921;DHT22;447;51.332;6.778;2024-01-30T16:14:06;11.00;99.90
921;DHT22;447;51.332;6.778;2024-01-30T16:16:51;11.00;99.90
921;DHT22;447;51.332;6.778;2024-01-30T16:19:36;11.00;99.90
921;DHT22;447;51.332;6.778;2024-01-30T16:22:27;11.00;99.90
921;DHT22;447;51.332;6.778;2024-01-30T16:25:17;11.00;99.90
921;DHT22;447;51.332;6.778;2024-01-30T16:28:10;11.00;99.90
921;DHT22;447;51.332;6.778;2024-01-30T16:31:00;11.00;99.90
921;DHT22;447;51.332;6.778;2024-01-30T16:33:54;11.00;99.90
921;DHT22;447;51.332;6.778;2024-01-30T16:36:44;11.00;99.90
921;DHT22;447;51.332;6.778;2024-01-30T16:39:36;11.00;99.90
921;DHT22;447;51.332;6.778;2024-01-30T16:42:28;11.00;99.90
921;DHT22;447;51.332;6.778;2024-01-30T16:45:20;11.00;99.90
921;DHT22;447;51.332;6.778;2024-01-30T16:48:12;10.90;99.90
921;DHT22;447;51.332;6.778;2024-01-30T16:51:10;10.90;99.90
921;DHT22;447;51.332;6.778;2024-01-30T16:54:07;10.90;99.90
921;DHT22;447;51.332;6.778;2024-01-30T16:56:58;10.90;99.90
921;DHT22;447;51.332;6.778;2024-01-30T16:59:51;10.90;99.90
921;DHT22;447;51.332;6.778;2024-01-30T17:02:41;10.90;99.90